createdAt,value
2022-08-20T00:02:26.864Z,97565.56
2022-08-20T00:07:29.271Z,97562.28
2022-08-20T00:12:30.854Z,97551.94
2022-08-20T00:17:37.720Z,97552.19
2022-08-20T00:22:39.410Z,97544.56
2022-08-20T00:27:40.874Z,97551.09
2022-08-20T00:32:43.386Z,97552.97
2022-08-20T00:37:44.761Z,97551.88
2022-08-20T00:42:47.982Z,97555.09
2022-08-20T00:47:49.500Z,97548.78
2022-08-20T00:52:54.253Z,97548.72
2022-08-20T00:58:01.533Z,97556.50
2022-08-20T01:03:04.370Z,97561.09
2022-08-20T01:08:06.477Z,97557.28
2022-08-20T01:13:11.591Z,97549.41
2022-08-20T01:18:14.895Z,97545.56
2022-08-20T01:23:27.457Z,97545.47
2022-08-20T01:28:31.835Z,97561.75
2022-08-20T01:33:33.328Z,97559.00
2022-08-20T01:38:34.789Z,97559.00
2022-08-20T01:43:37.283Z,97563.28
2022-08-20T01:48:40.648Z,97564.84
2022-08-20T01:53:46.968Z,97549.09
2022-08-20T01:58:55.870Z,97565.88
2022-08-20T02:04:01.897Z,97559.31
2022-08-20T02:09:04.880Z,97560.34
2022-08-20T02:14:08.722Z,97560.03
2022-08-20T02:19:12.777Z,97566.78
2022-08-20T02:24:14.639Z,97563.47
2022-08-20T02:29:16.246Z,97569.47
2022-08-20T02:34:22.888Z,97562.44
2022-08-20T02:39:26.758Z,97559.94
2022-08-20T02:44:28.170Z,97560.78
2022-08-20T02:49:29.540Z,97556.44
2022-08-20T02:54:31.033Z,97560.22
2022-08-20T02:59:32.370Z,97546.59
2022-08-20T03:04:33.694Z,97538.34
2022-08-20T03:09:35.025Z,97539.34
2022-08-20T03:14:37.502Z,97533.34
2022-08-20T03:19:39.299Z,97531.16
2022-08-20T03:24:40.676Z,97535.34
2022-08-20T03:29:42.052Z,97534.13
2022-08-20T03:34:43.420Z,97535.38
2022-08-20T03:39:45.135Z,97536.38
2022-08-20T03:44:48.503Z,97533.34
2022-08-20T03:50:01.099Z,97549.59
2022-08-20T03:55:03.217Z,97550.31
2022-08-20T04:00:05.504Z,97554.34
2022-08-20T04:05:13.470Z,97558.38
2022-08-20T04:10:14.922Z,97551.56
2022-08-20T04:15:17.193Z,97553.69
2022-08-20T04:20:22.690Z,97560.19
2022-08-20T04:25:24.046Z,97555.59
2022-08-20T04:30:25.926Z,97564.44
2022-08-20T04:35:28.038Z,97563.56
2022-08-20T04:40:48.190Z,97567.00
2022-08-20T04:45:54.422Z,97578.31
2022-08-20T04:50:57.155Z,97575.06
2022-08-20T04:56:01.431Z,97584.69
2022-08-20T05:01:05.304Z,97583.22
2022-08-20T05:06:07.811Z,97578.84
2022-08-20T05:11:35.913Z,97581.59
2022-08-20T05:16:32.851Z,97587.41
2022-08-20T05:21:34.254Z,97583.78
2022-08-20T05:26:35.742Z,97590.00
2022-08-20T05:31:38.352Z,97592.44
2022-08-20T05:36:45.472Z,97577.63
2022-08-20T05:41:50.721Z,97590.44
2022-08-20T05:46:52.078Z,97588.88
2022-08-20T05:51:53.544Z,97596.28
2022-08-20T05:56:56.964Z,97608.47
2022-08-20T06:01:58.317Z,97612.03
2022-08-20T06:07:04.561Z,97614.97
2022-08-20T06:12:07.683Z,97611.19
2022-08-20T06:17:15.397Z,97621.44
2022-08-20T06:22:18.205Z,97629.22
2022-08-20T06:27:23.077Z,97630.53
2022-08-20T06:32:31.917Z,97637.44
2022-08-20T06:37:36.890Z,97646.97
2022-08-20T06:42:45.734Z,97648.84
2022-08-20T06:47:49.778Z,97648.84
2022-08-20T06:52:52.651Z,97651.56
2022-08-20T06:58:02.496Z,97643.22
2022-08-20T07:03:04.844Z,97646.16
2022-08-20T07:08:06.162Z,97647.22
2022-08-20T07:13:07.540Z,97661.78
2022-08-20T07:18:09.726Z,97659.69
2022-08-20T07:23:11.997Z,97658.38
2022-08-20T07:28:15.766Z,97664.59
2022-08-20T07:33:17.620Z,97669.53
2022-08-20T07:38:24.441Z,97668.38
2022-08-20T07:43:26.265Z,97679.69
2022-08-20T07:48:32.079Z,97667.19
2022-08-20T07:53:36.489Z,97677.19
2022-08-20T07:58:39.491Z,97688.84
2022-08-20T08:03:49.828Z,97703.28
2022-08-20T08:08:54.281Z,97693.66
2022-08-20T08:13:56.278Z,97700.22
2022-08-20T08:18:58.431Z,97699.63
2022-08-20T08:23:59.818Z,97703.59
2022-08-20T08:29:02.616Z,97717.22
2022-08-20T08:34:04.097Z,97709.66
2022-08-20T08:39:07.485Z,97723.91
2022-08-20T08:44:13.228Z,97723.63
2022-08-20T08:49:18.420Z,97723.63
2022-08-20T08:54:22.225Z,97726.94
2022-08-20T08:59:24.795Z,97715.84
2022-08-20T09:04:38.637Z,97725.13
2022-08-20T09:09:43.466Z,97731.72
2022-08-20T09:14:48.271Z,97737.69
2022-08-20T09:19:53.138Z,97731.22
2022-08-20T09:24:54.901Z,97728.97
2022-08-20T09:29:57.067Z,97728.53
2022-08-20T09:34:59.842Z,97722.97
2022-08-20T09:40:01.633Z,97721.44
2022-08-20T09:45:05.315Z,97722.31
2022-08-20T09:50:12.849Z,97734.41
2022-08-20T09:55:22.704Z,97726.97
2022-08-20T10:00:25.748Z,97725.97
2022-08-20T10:05:28.650Z,97743.13
2022-08-20T10:10:30.422Z,97739.38
2022-08-20T10:15:33.744Z,97744.78
2022-08-20T10:20:35.672Z,97743.97
2022-08-20T10:25:37.924Z,97749.38
2022-08-20T10:30:40.828Z,97750.19
2022-08-20T10:35:42.163Z,97757.50
2022-08-20T10:40:52.169Z,97756.66
2022-08-20T10:45:54.340Z,97758.56
2022-08-20T10:50:56.604Z,97760.72
2022-08-20T10:55:59.007Z,97766.63
2022-08-20T11:01:01.283Z,97771.13
2022-08-20T11:06:04.655Z,97762.91
2022-08-20T11:11:07.181Z,97763.63
2022-08-20T11:16:10.080Z,97755.72
2022-08-20T11:21:11.728Z,97765.75
2022-08-20T11:26:21.548Z,97771.44
2022-08-20T11:31:24.859Z,97772.47
2022-08-20T11:36:26.620Z,97785.09
2022-08-20T11:41:28.530Z,97783.72
2022-08-20T11:46:33.294Z,97793.97
2022-08-20T11:51:49.132Z,97788.28
2022-08-20T11:56:52.495Z,97789.69
2022-08-20T12:02:03.089Z,97799.72
2022-08-20T12:07:10.087Z,97801.81
2022-08-20T12:12:12.376Z,97798.31
2022-08-20T12:17:21.206Z,97806.19
2022-08-20T12:22:25.451Z,97801.00
2022-08-20T12:27:29.230Z,97806.44
2022-08-20T12:32:32.070Z,97805.38
2022-08-20T12:37:33.674Z,97805.94
2022-08-20T12:42:35.359Z,97811.63
2022-08-20T12:47:39.017Z,97816.22
2022-08-20T12:52:40.756Z,97813.84
2022-08-20T12:57:51.065Z,97814.16
2022-08-20T13:02:54.549Z,97819.69
2022-08-20T13:07:56.786Z,97815.31
2022-08-20T13:13:00.111Z,97815.00
2022-08-20T13:18:03.474Z,97805.47
2022-08-20T13:23:07.154Z,97812.19
2022-08-20T13:28:09.239Z,97808.91
2022-08-20T13:33:11.505Z,97803.00
2022-08-20T13:38:14.446Z,97808.97
2022-08-20T13:43:16.245Z,97817.47
2022-08-20T13:48:18.430Z,97822.41
2022-08-20T13:53:20.671Z,97821.09
2022-08-20T13:58:23.006Z,97817.81
2022-08-20T14:03:25.316Z,97807.78
2022-08-20T14:08:27.360Z,97820.88
2022-08-20T14:13:29.230Z,97816.53
2022-08-20T14:18:31.406Z,97814.28
2022-08-20T14:23:36.986Z,97811.56
2022-08-20T14:28:39.911Z,97807.78
2022-08-20T14:33:44.702Z,97804.03
2022-08-20T14:38:47.797Z,97810.25
2022-08-20T14:43:49.332Z,97812.97
2022-08-20T14:48:52.552Z,97806.16
2022-08-20T14:53:55.196Z,97801.56
2022-08-20T14:58:57.142Z,97806.97
2022-08-20T15:04:00.445Z,97808.00
2022-08-20T15:09:02.803Z,97809.44
2022-08-20T15:14:10.591Z,97807.16
2022-08-20T15:19:13.446Z,97803.47
2022-08-20T15:24:19.401Z,97802.66
2022-08-20T15:29:23.290Z,97808.91
2022-08-20T15:34:25.952Z,97807.59
2022-08-20T15:39:27.832Z,97814.06
2022-08-20T15:44:30.377Z,97815.13
2022-08-20T15:49:31.819Z,97809.97
2022-08-20T15:54:33.377Z,97817.75
2022-08-20T15:59:52.206Z,97820.97
2022-08-20T16:05:13.381Z,97819.25
2022-08-20T16:10:27.673Z,97815.91
2022-08-20T16:15:30.863Z,97822.88
2022-08-20T16:20:40.453Z,97825.94
2022-08-20T16:25:48.615Z,97834.41
2022-08-20T16:30:53.572Z,97825.53
2022-08-20T16:35:58.918Z,97828.84
2022-08-20T16:41:21.384Z,97842.66
2022-08-20T16:46:28.591Z,97846.41
2022-08-20T16:51:32.170Z,97844.19
2022-08-20T16:56:35.666Z,97845.84
2022-08-20T17:01:37.049Z,97859.38
2022-08-20T17:06:38.566Z,97861.03
2022-08-20T17:11:41.602Z,97868.56
2022-08-20T17:16:45.425Z,97860.09
2022-08-20T17:21:50.484Z,97860.31
2022-08-20T17:26:57.676Z,97863.25
2022-08-20T17:32:14.614Z,97871.66
2022-08-20T17:37:22.343Z,97864.91
2022-08-20T17:42:26.220Z,97867.38
2022-08-20T17:47:31.991Z,97868.00
2022-08-20T17:52:39.580Z,97873.50
2022-08-20T17:57:43.429Z,97881.13
2022-08-20T18:02:44.855Z,97896.31
2022-08-20T18:07:52.370Z,97893.38
2022-08-20T18:13:06.633Z,97895.84
2022-08-20T18:18:08.065Z,97887.22
2022-08-20T18:23:29.723Z,97885.69
2022-08-20T18:28:38.233Z,97896.28
2022-08-20T18:33:42.185Z,97895.47
2022-08-20T18:38:55.081Z,97910.56
2022-08-20T18:44:05.141Z,97902.09
2022-08-20T18:49:08.463Z,97902.31
2022-08-20T18:54:21.618Z,97905.84
2022-08-20T18:59:23.092Z,97908.34
2022-08-20T19:04:29.059Z,97907.03
2022-08-20T19:09:43.256Z,97911.97
2022-08-20T19:15:01.339Z,97914.44
2022-08-20T19:20:05.971Z,97912.19
2022-08-20T19:25:07.764Z,97915.97
2022-08-20T19:30:09.570Z,97916.47
2022-08-20T19:35:17.147Z,97918.69
2022-08-20T19:40:22.512Z,97906.19
2022-08-20T19:45:37.321Z,97905.38
2022-08-20T19:50:38.677Z,97902.44
2022-08-20T19:55:40.750Z,97904.56
2022-08-20T20:00:44.641Z,97903.47
2022-08-20T20:05:51.041Z,97907.03
2022-08-20T20:10:53.743Z,97902.44
2022-08-20T20:15:56.252Z,97899.47
2022-08-20T20:21:08.998Z,97904.88
2022-08-20T20:26:14.631Z,97900.78
2022-08-20T20:31:24.669Z,97898.31
2022-08-20T20:36:37.306Z,97890.41
2022-08-20T20:41:38.718Z,97880.06
2022-08-20T20:46:40.069Z,97881.72
2022-08-20T20:51:42.800Z,97881.13
2022-08-20T20:56:44.204Z,97875.97
2022-08-20T21:01:49.529Z,97868.06
2022-08-20T21:06:52.885Z,97867.75
2022-08-20T21:11:54.257Z,97866.94
2022-08-20T21:16:58.154Z,97863.63
2022-08-20T21:21:59.635Z,97859.25
2022-08-20T21:27:03.490Z,97858.91
2022-08-20T21:32:05.231Z,97850.47
2022-08-20T21:37:06.558Z,97848.25
2022-08-20T21:42:28.506Z,97865.53
2022-08-20T21:47:31.190Z,97857.66
2022-08-20T21:52:32.589Z,97854.13
2022-08-20T21:57:37.448Z,97858.13
2022-08-20T22:02:39.862Z,97850.50
2022-08-20T22:07:42.485Z,97844.81
2022-08-20T22:12:44.316Z,97841.56
2022-08-20T22:17:45.890Z,97838.25
2022-08-20T22:22:47.344Z,97835.22
2022-08-20T22:27:48.804Z,97838.41
2022-08-20T22:32:52.107Z,97842.41
2022-08-20T22:38:02.978Z,97845.59
2022-08-20T22:43:04.868Z,97838.06
2022-08-20T22:48:07.106Z,97838.06
2022-08-20T22:53:08.860Z,97838.06
2022-08-20T22:58:10.872Z,97844.31
2022-08-20T23:03:12.754Z,97835.94
2022-08-20T23:08:14.978Z,97841.34
2022-08-20T23:13:16.353Z,97834.63
2022-08-20T23:18:19.120Z,97832.72
2022-08-20T23:23:21.606Z,97831.09
2022-08-20T23:28:24.409Z,97837.81
2022-08-20T23:33:26.333Z,97834.53
2022-08-20T23:38:28.899Z,97822.06
2022-08-20T23:43:31.068Z,97826.91
2022-08-20T23:48:34.748Z,97827.94
2022-08-20T23:53:36.742Z,97818.19
2022-08-20T23:58:39.509Z,97827.13
